KTPL/TPL METAR and TAF weather

Enter ICAO airport designator
Station Type Date Time Source
KTPL METAR 2019/04/22 17:51 UTC NOAA

KTPL 221751Z AUTO 15015KT 10SM 26/17 A3005 RMK AO2 SLP180 T02560167 10256 20172 58001 $


Station Type Date Time Source
KTPL Decoded METAR 2019/04/22 17:51 UTC NOAA

Temple, Draughon-Miller Central Texas Regional Airport, TX, United States (KTPL) 31-09N 097-24W
Apr 22, 2019 - 01:51 PM EDT / 2019.04.22 1751 UTC
Wind: from the SSE (150 degrees) at 17 MPH (15 KT):0
Visibility: 10 mile(s):0
Temperature: 78.1 F (25.6 C)
Dew Point: 62.1 F (16.7 C)
Relative Humidity: 57%
Pressure (altimeter): 30.05 in. Hg (1017 hPa)
Pressure tendency: 0.00 inches (0.1 hPa) lower than three hours ago
ob: KTPL 221751Z AUTO 15015KT 10SM 26/17 A3005 RMK AO2 SLP180 T02560167 10256 20172 58001
cycle: 18

Station Type Date Time Source
KTPL TAF UTC NOAA

Error!

Example: see airport list